Аэропорт
Ош (UCFO)

 UCFO / OSS
ЗЦ Центральная Азия
Ош (UCFO)
Ош (UCFO)
 40.60900, 72.79330  / 2927 ft

 UCFO 161600Z 17003MPS 2400 BR FU NSC 03/01 Q1013 R12/09//95 NOSIG
 UCFO 160444Z 1606/1706 27005MPS 5000 BR BKN030 TEMPO 1606/1612 05005MPS 1500 BR FU SCT020 BECMG 1612/1614 17005MPS 1600 BR FU TEMPO 1612/1618 0900 FZFG SCT002
показать схемы



2019 © VATRUS division (Privacy Policy)